createdAt,value
2022-08-25T00:01:33.128Z,2.30
2022-08-25T00:04:01.802Z,2.40
2022-08-25T00:06:29.035Z,2.23
2022-08-25T00:08:59.590Z,2.20
2022-08-25T00:11:28.516Z,2.20
2022-08-25T00:13:58.354Z,2.17
2022-08-25T00:16:26.503Z,2.40
2022-08-25T00:18:58.191Z,2.23
2022-08-25T00:21:25.840Z,2.30
2022-08-25T00:23:53.492Z,2.07
2022-08-25T00:26:20.858Z,2.10
2022-08-25T00:28:47.987Z,2.40
2022-08-25T00:31:16.819Z,2.00
2022-08-25T00:33:45.024Z,2.23
2022-08-25T00:36:12.511Z,1.93
2022-08-25T00:38:43.326Z,2.20
2022-08-25T00:41:11.384Z,2.20
2022-08-25T00:43:41.545Z,2.30
2022-08-25T00:46:10.327Z,2.00
2022-08-25T00:48:37.800Z,2.17
2022-08-25T00:51:05.257Z,2.00
2022-08-25T00:53:32.914Z,2.27
2022-08-25T00:56:00.092Z,2.10
2022-08-25T00:58:27.936Z,2.17
2022-08-25T01:00:57.591Z,2.00
2022-08-25T01:03:32.957Z,2.40
2022-08-25T01:06:02.440Z,2.00
2022-08-25T01:08:30.304Z,2.10
2022-08-25T01:11:00.115Z,2.23
2022-08-25T01:13:29.868Z,2.10
2022-08-25T01:15:58.647Z,2.07
2022-08-25T01:18:27.235Z,2.20
2022-08-25T01:20:55.762Z,2.00
2022-08-25T01:23:23.318Z,2.20
2022-08-25T01:26:02.722Z,2.03
2022-08-25T01:28:30.277Z,2.00
2022-08-25T01:30:57.567Z,1.97
2022-08-25T01:33:24.859Z,2.03
2022-08-25T01:35:52.036Z,2.10
2022-08-25T01:38:20.957Z,2.30
2022-08-25T01:40:50.356Z,2.10
2022-08-25T01:43:31.608Z,1.80
2022-08-25T01:45:59.118Z,2.00
2022-08-25T01:48:26.713Z,2.30
2022-08-25T01:50:53.876Z,2.10
2022-08-25T01:53:21.509Z,2.10
2022-08-25T01:55:51.874Z,2.10
2022-08-25T01:58:35.919Z,2.17
2022-08-25T02:01:04.875Z,2.23
2022-08-25T02:03:32.551Z,2.07
2022-08-25T02:06:01.861Z,2.20
2022-08-25T02:08:31.665Z,2.40
2022-08-25T02:10:58.918Z,2.13
2022-08-25T02:13:26.815Z,2.03
2022-08-25T02:15:59.292Z,2.20
2022-08-25T02:18:26.505Z,2.20
2022-08-25T02:20:54.208Z,2.20
2022-08-25T02:23:21.489Z,2.10
2022-08-25T02:25:48.691Z,2.30
2022-08-25T02:28:16.052Z,2.23
2022-08-25T02:30:43.561Z,2.33
2022-08-25T02:33:11.491Z,2.10
2022-08-25T02:35:39.062Z,2.10
2022-08-25T02:38:06.544Z,2.27
2022-08-25T02:40:34.224Z,2.20
2022-08-25T02:43:02.175Z,2.23
2022-08-25T02:45:29.509Z,2.30
2022-08-25T02:47:56.687Z,2.30
2022-08-25T02:50:23.887Z,2.37
2022-08-25T02:52:51.965Z,2.17
2022-08-25T02:55:19.592Z,2.20
2022-08-25T02:57:48.142Z,2.27
2022-08-25T03:00:16.690Z,2.30
2022-08-25T03:02:44.927Z,2.20
2022-08-25T03:05:13.456Z,2.47
2022-08-25T03:07:41.047Z,2.30
2022-08-25T03:10:10.458Z,2.20
2022-08-25T03:12:37.592Z,2.40
2022-08-25T03:15:05.343Z,2.20
2022-08-25T03:17:40.147Z,2.10
2022-08-25T03:20:08.749Z,2.20
2022-08-25T03:22:36.374Z,2.70
2022-08-25T03:25:24.281Z,2.27
2022-08-25T03:27:51.940Z,2.10
2022-08-25T03:30:19.827Z,2.40
2022-08-25T03:32:47.394Z,2.17
2022-08-25T03:35:15.064Z,2.30
2022-08-25T03:37:42.226Z,2.30
2022-08-25T03:40:15.203Z,2.23
2022-08-25T03:42:45.097Z,2.27
2022-08-25T03:45:14.105Z,2.43
2022-08-25T03:47:42.135Z,2.20
2022-08-25T03:50:10.979Z,2.37
2022-08-25T03:52:42.477Z,2.40
2022-08-25T03:55:11.464Z,2.40
2022-08-25T03:57:38.611Z,2.40
2022-08-25T04:00:07.294Z,2.30
2022-08-25T04:02:34.455Z,2.20
2022-08-25T04:05:01.689Z,2.50
2022-08-25T04:07:29.494Z,2.50
2022-08-25T04:09:56.726Z,2.40
2022-08-25T04:12:24.243Z,2.30
2022-08-25T04:14:51.615Z,2.40
2022-08-25T04:17:19.067Z,2.33
2022-08-25T04:19:46.298Z,2.70
2022-08-25T04:22:13.474Z,2.30
2022-08-25T04:24:40.854Z,2.50
2022-08-25T04:27:07.973Z,2.30
2022-08-25T04:29:35.131Z,2.60
2022-08-25T04:32:02.353Z,2.27
2022-08-25T04:34:31.419Z,2.30
2022-08-25T04:37:00.122Z,2.50
2022-08-25T04:39:27.254Z,2.40
2022-08-25T04:41:54.454Z,2.40
2022-08-25T04:44:21.859Z,2.40
2022-08-25T04:46:49.967Z,2.27
2022-08-25T04:49:17.182Z,2.47
2022-08-25T04:51:44.478Z,2.50
2022-08-25T04:54:13.234Z,2.60
2022-08-25T04:56:41.566Z,2.30
2022-08-25T04:59:10.240Z,2.20
2022-08-25T05:01:37.805Z,2.60
2022-08-25T05:04:06.787Z,2.20
2022-08-25T05:06:34.605Z,2.40
2022-08-25T05:09:01.771Z,2.60
2022-08-25T05:11:29.926Z,2.70
2022-08-25T05:13:59.237Z,2.50
2022-08-25T05:16:28.026Z,2.30
2022-08-25T05:18:55.626Z,2.73
2022-08-25T05:21:25.085Z,2.63
2022-08-25T05:23:56.771Z,2.30
2022-08-25T05:26:24.704Z,2.20
2022-08-25T05:28:53.303Z,2.60
2022-08-25T05:31:21.242Z,2.30
2022-08-25T05:33:48.904Z,2.30
2022-08-25T05:36:17.086Z,2.53
2022-08-25T05:38:44.441Z,2.43
2022-08-25T05:41:13.232Z,2.30
2022-08-25T05:43:41.222Z,2.57
2022-08-25T05:46:08.645Z,2.90
2022-08-25T05:48:36.317Z,2.60
2022-08-25T05:51:05.026Z,2.70
2022-08-25T05:53:33.965Z,2.60
2022-08-25T05:56:01.976Z,2.70
2022-08-25T05:58:30.148Z,2.70
2022-08-25T06:00:57.750Z,2.50
2022-08-25T06:03:25.004Z,2.33
2022-08-25T06:05:52.189Z,2.53
2022-08-25T06:08:19.960Z,2.57
2022-08-25T06:10:52.415Z,2.67
2022-08-25T06:13:26.009Z,2.60
2022-08-25T06:16:00.422Z,2.60
2022-08-25T06:18:28.084Z,2.73
2022-08-25T06:20:55.245Z,2.63
2022-08-25T06:23:22.414Z,2.50
2022-08-25T06:25:51.465Z,2.50
2022-08-25T06:28:19.334Z,2.63
2022-08-25T06:30:46.917Z,3.00
2022-08-25T06:33:14.742Z,2.80
2022-08-25T06:35:43.059Z,2.70
2022-08-25T06:38:10.270Z,2.70
2022-08-25T06:40:37.607Z,2.90
2022-08-25T06:43:08.748Z,2.53
2022-08-25T06:45:36.329Z,2.93
2022-08-25T06:48:03.486Z,2.70
2022-08-25T06:50:30.597Z,2.70
2022-08-25T06:52:57.761Z,2.70
2022-08-25T06:55:24.896Z,2.60
2022-08-25T06:57:55.123Z,2.37
2022-08-25T07:00:23.097Z,2.50
2022-08-25T07:02:58.614Z,3.00
2022-08-25T07:05:33.836Z,2.87
2022-08-25T07:08:08.048Z,2.73
2022-08-25T07:10:35.185Z,2.70
2022-08-25T07:13:03.940Z,2.60
2022-08-25T07:15:31.104Z,2.77
2022-08-25T07:17:58.721Z,3.10
2022-08-25T07:22:58.819Z,3.27
2022-08-25T07:25:26.048Z,2.80
2022-08-25T07:27:58.198Z,2.67
2022-08-25T07:30:25.980Z,3.03
2022-08-25T07:32:55.114Z,2.70
2022-08-25T07:35:26.335Z,2.90
2022-08-25T07:37:57.135Z,3.00
2022-08-25T07:40:27.026Z,2.63
2022-08-25T07:42:56.387Z,3.10
2022-08-25T07:45:30.245Z,2.90
2022-08-25T07:48:02.413Z,2.90
2022-08-25T07:50:31.303Z,3.20
2022-08-25T07:52:58.913Z,2.87
2022-08-25T07:55:27.039Z,2.93
2022-08-25T07:57:57.097Z,3.13
2022-08-25T08:00:27.693Z,3.20
2022-08-25T08:02:55.352Z,3.10
2022-08-25T08:05:23.957Z,3.17
2022-08-25T08:07:51.212Z,2.90
2022-08-25T08:10:53.801Z,3.23
2022-08-25T08:13:07.335Z,2.90
2022-08-25T08:15:35.152Z,3.07
2022-08-25T08:18:03.047Z,3.27
2022-08-25T08:20:42.817Z,3.20
2022-08-25T08:23:10.799Z,3.00
2022-08-25T08:25:38.184Z,3.50
2022-08-25T08:28:07.196Z,3.03
2022-08-25T08:30:36.521Z,3.33
2022-08-25T08:33:12.874Z,3.20
2022-08-25T08:35:43.991Z,2.97
2022-08-25T08:38:17.384Z,3.05
2022-08-25T08:41:23.582Z,3.10
2022-08-25T08:43:54.544Z,3.10
2022-08-25T08:46:22.969Z,3.28
2022-08-25T08:49:01.271Z,2.72
2022-08-25T08:51:33.849Z,2.80
2022-08-25T08:54:05.416Z,2.85
2022-08-25T08:56:47.961Z,2.70
2022-08-25T08:59:19.871Z,2.60
2022-08-25T09:01:52.581Z,2.78
2022-08-25T09:04:28.266Z,2.33
2022-08-25T09:06:56.404Z,2.60
2022-08-25T09:09:30.882Z,2.42
2022-08-25T09:12:12.180Z,2.50
2022-08-25T09:14:42.451Z,2.58
2022-08-25T09:17:36.694Z,2.58
2022-08-25T09:20:18.810Z,2.80
2022-08-25T09:23:01.824Z,2.50
2022-08-25T09:25:53.026Z,2.50
2022-08-25T09:28:24.695Z,2.47
2022-08-25T09:31:01.308Z,2.47
2022-08-25T09:33:30.111Z,2.40
2022-08-25T09:36:01.618Z,2.40
2022-08-25T09:38:33.336Z,2.42
2022-08-25T09:41:01.068Z,2.20
2022-08-25T09:43:28.227Z,2.20
2022-08-25T09:46:04.655Z,2.22
2022-08-25T09:48:40.590Z,2.05
2022-08-25T09:51:17.705Z,2.47
2022-08-25T09:54:10.340Z,5.07
2022-08-25T09:56:49.082Z,2.50
2022-08-25T09:59:36.032Z,2.78
2022-08-25T10:02:05.070Z,2.40
2022-08-25T10:04:37.148Z,2.40
2022-08-25T10:07:05.811Z,2.30
2022-08-25T10:09:39.504Z,2.63
2022-08-25T10:12:24.990Z,2.70
2022-08-25T10:14:55.311Z,2.40
2022-08-25T10:17:33.758Z,2.45
2022-08-25T10:20:15.175Z,2.63
2022-08-25T10:22:43.263Z,2.40
2022-08-25T10:25:11.747Z,2.75
2022-08-25T10:28:06.063Z,2.42
2022-08-25T10:30:48.519Z,2.50
2022-08-25T10:33:16.034Z,2.50
2022-08-25T10:35:47.984Z,2.22
2022-08-25T10:38:21.693Z,2.50
2022-08-25T10:40:53.166Z,2.33
2022-08-25T10:43:23.864Z,2.10
2022-08-25T10:45:55.772Z,2.22
2022-08-25T10:48:43.311Z,2.30
2022-08-25T10:51:29.305Z,2.10
2022-08-25T10:54:08.934Z,2.13
2022-08-25T10:56:40.926Z,2.40
2022-08-25T10:59:17.304Z,2.30
2022-08-25T11:02:02.740Z,2.10
2022-08-25T11:04:36.629Z,2.05
2022-08-25T11:07:22.810Z,2.10
2022-08-25T11:09:52.885Z,2.20
2022-08-25T11:12:24.692Z,2.30
2022-08-25T11:14:57.890Z,2.30
2022-08-25T11:17:26.799Z,2.03
2022-08-25T11:19:58.067Z,2.25
2022-08-25T11:22:28.400Z,2.03
2022-08-25T11:25:01.476Z,2.10
2022-08-25T11:27:46.208Z,2.00
2022-08-25T11:30:15.355Z,1.80
2022-08-25T11:32:45.459Z,1.90
2022-08-25T11:35:15.388Z,1.92
2022-08-25T11:37:46.656Z,1.70
2022-08-25T11:40:19.675Z,1.80
2022-08-25T11:42:59.615Z,1.80
2022-08-25T11:45:45.695Z,1.90
2022-08-25T11:48:19.280Z,1.90
2022-08-25T11:50:57.284Z,1.70
2022-08-25T11:53:33.424Z,1.70
2022-08-25T11:56:06.347Z,1.60
2022-08-25T11:58:35.162Z,1.83
2022-08-25T12:01:03.424Z,1.80
2022-08-25T12:03:36.451Z,1.70
2022-08-25T12:06:42.177Z,1.60
2022-08-25T12:09:13.252Z,1.80
2022-08-25T12:11:43.534Z,1.65
2022-08-25T12:14:13.456Z,1.50
2022-08-25T12:16:40.733Z,1.60
2022-08-25T12:19:28.734Z,1.70
2022-08-25T12:22:19.210Z,1.70
2022-08-25T12:25:03.458Z,1.52
2022-08-25T12:27:48.748Z,1.60
2022-08-25T12:30:36.701Z,1.70
2022-08-25T12:33:07.111Z,1.80
2022-08-25T12:35:34.300Z,1.70
2022-08-25T12:38:13.776Z,1.70
2022-08-25T12:40:43.850Z,1.70
2022-08-25T12:43:33.514Z,1.73
2022-08-25T12:46:23.756Z,1.52
2022-08-25T12:48:56.335Z,1.63
2022-08-25T12:51:26.270Z,1.67
2022-08-25T12:54:15.863Z,1.50
2022-08-25T12:56:47.911Z,1.77
2022-08-25T12:59:22.795Z,1.75
2022-08-25T13:02:09.059Z,1.70
2022-08-25T13:04:54.585Z,1.77
2022-08-25T13:07:40.319Z,1.80
2022-08-25T13:10:26.710Z,1.60
2022-08-25T13:12:59.097Z,1.63
2022-08-25T13:15:37.996Z,1.70
2022-08-25T13:18:15.247Z,1.70
2022-08-25T13:20:44.480Z,2.00
2022-08-25T13:23:13.459Z,1.90
2022-08-25T13:25:47.511Z,1.88
2022-08-25T13:28:21.710Z,2.00
2022-08-25T13:30:56.755Z,2.00
2022-08-25T13:33:24.115Z,2.10
2022-08-25T13:36:13.009Z,2.00
2022-08-25T13:38:40.661Z,2.00
2022-08-25T13:41:09.716Z,2.00
2022-08-25T13:43:38.410Z,2.05
2022-08-25T13:46:06.943Z,2.00
2022-08-25T13:48:38.447Z,2.10
2022-08-25T13:51:17.623Z,2.10
2022-08-25T13:53:52.629Z,2.00
2022-08-25T13:56:41.000Z,2.20
2022-08-25T13:59:27.290Z,2.28
2022-08-25T14:01:55.791Z,2.15
2022-08-25T14:04:27.320Z,2.30
2022-08-25T14:07:09.827Z,1.90
2022-08-25T14:09:39.778Z,2.40
2022-08-25T14:12:08.438Z,2.10
2022-08-25T14:14:36.679Z,2.13
2022-08-25T14:17:16.399Z,2.17
2022-08-25T14:19:51.797Z,2.33
2022-08-25T14:22:18.954Z,2.20
2022-08-25T14:24:46.322Z,2.30
2022-08-25T14:27:13.518Z,2.35
2022-08-25T14:29:41.272Z,2.13
2022-08-25T14:32:09.995Z,2.40
2022-08-25T14:34:37.766Z,2.10
2022-08-25T14:37:11.982Z,2.50
2022-08-25T14:39:42.651Z,2.17
2022-08-25T14:42:11.715Z,2.30
2022-08-25T14:44:39.040Z,2.20
2022-08-25T14:47:07.195Z,2.20
2022-08-25T14:49:36.291Z,2.10
2022-08-25T14:52:10.216Z,2.35
2022-08-25T14:54:40.083Z,2.15
2022-08-25T14:57:08.510Z,2.30
2022-08-25T14:59:36.130Z,2.25
2022-08-25T15:02:13.038Z,2.20
2022-08-25T15:04:49.037Z,2.22
2022-08-25T15:07:38.137Z,2.30
2022-08-25T15:10:07.651Z,2.20
2022-08-25T15:12:46.799Z,2.35
2022-08-25T15:15:14.981Z,2.40
2022-08-25T15:17:44.550Z,2.40
2022-08-25T15:20:12.409Z,2.10
2022-08-25T15:22:41.811Z,2.35
2022-08-25T15:25:09.104Z,2.00
2022-08-25T15:27:36.727Z,2.40
2022-08-25T15:30:04.487Z,2.40
2022-08-25T15:32:31.655Z,2.78
2022-08-25T15:34:59.966Z,3.10
2022-08-25T15:37:27.338Z,4.78
2022-08-25T15:39:54.739Z,4.35
2022-08-25T15:42:22.364Z,3.30
2022-08-25T15:44:53.351Z,5.55
2022-08-25T15:47:21.650Z,3.00
2022-08-25T15:49:48.775Z,2.20
2022-08-25T15:52:15.903Z,3.42
2022-08-25T15:54:43.132Z,2.20
2022-08-25T15:57:24.129Z,2.20
2022-08-25T15:59:52.448Z,2.95
2022-08-25T16:02:20.513Z,3.17
2022-08-25T16:04:47.724Z,4.05
2022-08-25T16:07:15.084Z,3.08
2022-08-25T16:09:42.308Z,2.60
2022-08-25T16:12:11.242Z,4.05
2022-08-25T16:14:40.653Z,2.10
2022-08-25T16:17:07.898Z,2.30
2022-08-25T16:19:35.773Z,2.15
2022-08-25T16:22:08.772Z,2.20
2022-08-25T16:24:44.213Z,2.20
2022-08-25T16:27:12.893Z,2.67
2022-08-25T16:29:41.338Z,2.00
2022-08-25T16:32:09.179Z,2.15
2022-08-25T16:34:36.521Z,2.00
2022-08-25T16:37:03.744Z,2.60
2022-08-25T16:39:31.945Z,2.33
2022-08-25T16:41:59.400Z,2.40
2022-08-25T16:44:27.098Z,2.17
2022-08-25T16:46:55.339Z,1.98
2022-08-25T16:49:24.451Z,2.30
2022-08-25T16:51:57.264Z,2.00
2022-08-25T16:54:43.614Z,2.30
2022-08-25T16:57:11.514Z,2.35
2022-08-25T16:59:38.655Z,2.20
2022-08-25T17:02:06.636Z,2.20
2022-08-25T17:04:33.856Z,2.13
2022-08-25T17:07:01.966Z,2.60
2022-08-25T17:09:29.792Z,2.40
2022-08-25T17:11:57.194Z,3.10
2022-08-25T17:14:24.651Z,2.30
2022-08-25T17:16:54.741Z,2.65
2022-08-25T17:19:23.592Z,2.53
2022-08-25T17:21:52.184Z,2.20
2022-08-25T17:24:19.378Z,2.10
2022-08-25T17:26:50.019Z,2.30
2022-08-25T17:29:17.950Z,1.77
2022-08-25T17:31:48.330Z,1.92
2022-08-25T17:34:16.397Z,1.83
2022-08-25T17:36:45.234Z,1.92
2022-08-25T17:39:14.303Z,1.80
2022-08-25T17:41:43.909Z,1.70
2022-08-25T17:44:11.374Z,1.50
2022-08-25T17:46:47.079Z,1.40
2022-08-25T17:49:15.031Z,1.55
2022-08-25T17:51:42.814Z,1.70
2022-08-25T17:54:09.993Z,1.80
2022-08-25T17:56:38.289Z,1.60
2022-08-25T17:59:06.360Z,1.60
2022-08-25T18:01:34.958Z,1.90
2022-08-25T18:04:07.520Z,1.80
2022-08-25T18:06:44.860Z,1.80
2022-08-25T18:09:12.240Z,1.95
2022-08-25T18:11:39.574Z,1.92
2022-08-25T18:14:06.782Z,1.60
2022-08-25T18:16:38.797Z,1.65
2022-08-25T18:19:06.509Z,1.80
2022-08-25T18:21:37.174Z,1.65
2022-08-25T18:24:04.665Z,1.98
2022-08-25T18:26:32.078Z,2.00
2022-08-25T18:28:59.264Z,2.25
2022-08-25T18:31:26.674Z,1.95
2022-08-25T18:33:53.900Z,2.25
2022-08-25T18:36:21.197Z,2.20
2022-08-25T18:39:07.439Z,2.20
2022-08-25T18:41:36.604Z,2.33
2022-08-25T18:44:06.471Z,2.00
2022-08-25T18:46:33.895Z,2.03
2022-08-25T18:49:01.307Z,2.25
2022-08-25T18:51:28.610Z,2.20
2022-08-25T18:54:01.107Z,2.70
2022-08-25T18:56:29.065Z,3.45
2022-08-25T18:58:56.710Z,2.30
2022-08-25T19:01:24.401Z,1.90
2022-08-25T19:03:51.803Z,3.65
2022-08-25T19:06:19.449Z,2.40
2022-08-25T19:08:47.768Z,2.45
2022-08-25T19:11:15.939Z,2.60
2022-08-25T19:13:43.466Z,1.73
2022-08-25T19:16:17.855Z,2.30
2022-08-25T19:18:50.103Z,2.45
2022-08-25T19:21:23.449Z,1.90
2022-08-25T19:23:51.402Z,3.00
2022-08-25T19:26:19.682Z,2.22
2022-08-25T19:28:48.830Z,2.30
2022-08-25T19:31:18.389Z,1.75
2022-08-25T19:33:46.416Z,1.90
2022-08-25T19:36:14.027Z,4.35
2022-08-25T19:38:41.822Z,1.90
2022-08-25T19:41:14.217Z,1.60
2022-08-25T19:43:55.611Z,1.88
2022-08-25T19:46:25.309Z,1.52
2022-08-25T19:48:52.551Z,1.60
2022-08-25T19:51:21.944Z,1.65
2022-08-25T19:53:54.277Z,1.60
2022-08-25T19:56:22.053Z,1.65
2022-08-25T19:58:49.213Z,1.98
2022-08-25T20:01:18.108Z,1.63
2022-08-25T20:03:45.738Z,1.60
2022-08-25T20:06:15.961Z,1.45
2022-08-25T20:08:43.621Z,1.60
2022-08-25T20:11:10.873Z,1.60
2022-08-25T20:13:38.118Z,1.92
2022-08-25T20:16:05.665Z,1.90
2022-08-25T20:18:32.980Z,1.70
2022-08-25T20:21:02.305Z,1.75
2022-08-25T20:23:48.345Z,1.70
2022-08-25T20:26:15.495Z,1.40
2022-08-25T20:28:42.631Z,1.45
2022-08-25T20:31:09.897Z,1.52
2022-08-25T20:33:37.096Z,2.00
2022-08-25T20:36:04.927Z,2.70
2022-08-25T20:38:32.266Z,2.10
2022-08-25T20:41:00.688Z,1.92
2022-08-25T20:43:29.605Z,1.80
2022-08-25T20:46:03.756Z,1.60
2022-08-25T20:48:30.999Z,1.50
2022-08-25T20:50:58.186Z,1.77
2022-08-25T20:53:26.373Z,1.50
2022-08-25T20:55:53.590Z,1.50
2022-08-25T20:58:21.034Z,1.60
2022-08-25T21:00:48.354Z,1.52
2022-08-25T21:03:15.480Z,1.50
2022-08-25T21:05:43.318Z,1.50
2022-08-25T21:08:11.075Z,1.42
2022-08-25T21:10:38.378Z,1.67
2022-08-25T21:13:06.532Z,1.70
2022-08-25T21:15:33.698Z,1.50
2022-08-25T21:18:01.004Z,1.60
2022-08-25T21:20:28.234Z,1.55
2022-08-25T21:22:55.656Z,1.55
2022-08-25T21:25:23.948Z,1.45
2022-08-25T21:27:51.147Z,1.55
2022-08-25T21:30:18.309Z,1.70
2022-08-25T21:32:53.132Z,1.50
2022-08-25T21:35:21.127Z,1.55
2022-08-25T21:37:53.371Z,1.80
2022-08-25T21:40:20.925Z,1.70
2022-08-25T21:42:48.921Z,1.75
2022-08-25T21:45:16.160Z,1.60
2022-08-25T21:47:43.741Z,1.70
2022-08-25T21:50:11.390Z,1.50
2022-08-25T21:52:38.720Z,1.67
2022-08-25T21:55:15.734Z,1.50
2022-08-25T21:57:43.817Z,1.50
2022-08-25T22:00:12.688Z,1.50
2022-08-25T22:02:39.904Z,1.70
2022-08-25T22:05:11.475Z,1.67
2022-08-25T22:07:43.812Z,1.60
2022-08-25T22:10:16.621Z,1.60
2022-08-25T22:12:45.262Z,1.60
2022-08-25T22:15:13.955Z,1.52
2022-08-25T22:17:41.285Z,1.60
2022-08-25T22:20:09.339Z,1.70
2022-08-25T22:22:36.509Z,1.58
2022-08-25T22:25:03.870Z,1.60
2022-08-25T22:27:32.916Z,1.70
2022-08-25T22:30:01.242Z,1.90
2022-08-25T22:32:29.150Z,1.70
2022-08-25T22:34:56.314Z,1.77
2022-08-25T22:37:23.475Z,1.85
2022-08-25T22:39:50.684Z,1.70
2022-08-25T22:42:18.468Z,1.58
2022-08-25T22:44:45.616Z,1.70
2022-08-25T22:47:12.822Z,1.70
2022-08-25T22:49:40.525Z,1.73
2022-08-25T22:52:09.323Z,1.90
2022-08-25T22:54:41.015Z,2.05
2022-08-25T22:57:08.227Z,1.92
2022-08-25T22:59:35.376Z,1.70
2022-08-25T23:02:02.585Z,1.80
2022-08-25T23:04:30.490Z,1.90
2022-08-25T23:06:57.653Z,1.50
2022-08-25T23:09:25.819Z,1.80
2022-08-25T23:11:52.969Z,1.80
2022-08-25T23:14:20.770Z,1.67
2022-08-25T23:16:49.893Z,1.70
2022-08-25T23:19:17.464Z,1.60
2022-08-25T23:22:03.532Z,1.80
2022-08-25T23:24:32.034Z,1.70
2022-08-25T23:26:59.815Z,1.60
2022-08-25T23:29:27.966Z,1.77
2022-08-25T23:31:55.407Z,1.90
2022-08-25T23:34:23.295Z,1.67
2022-08-25T23:36:51.212Z,1.60
2022-08-25T23:39:18.441Z,1.63
2022-08-25T23:41:48.868Z,1.85
2022-08-25T23:44:17.531Z,1.65
2022-08-25T23:46:45.344Z,1.80
2022-08-25T23:49:14.925Z,1.85
2022-08-25T23:51:46.555Z,1.80
2022-08-25T23:54:14.668Z,1.60
2022-08-25T23:56:51.871Z,1.75
2022-08-25T23:59:20.049Z,2.00
